sensor_id;sensor_type;location;lat;lon;timestamp;temperature;humidity
37646;DHT22;23489;49.600;6.138;2023-07-29T00:00:57;19.10;99.90
37646;DHT22;23489;49.600;6.138;2023-07-29T00:03:23;19.20;99.90
37646;DHT22;23489;49.600;6.138;2023-07-29T00:05:49;19.20;99.90
37646;DHT22;23489;49.600;6.138;2023-07-29T00:08:14;19.20;99.90
37646;DHT22;23489;49.600;6.138;2023-07-29T00:10:40;19.10;99.90
37646;DHT22;23489;49.600;6.138;2023-07-29T00:13:06;19.10;99.90
37646;DHT22;23489;49.600;6.138;2023-07-29T00:15:32;19.10;99.90
37646;DHT22;23489;49.600;6.138;2023-07-29T00:17:58;19.10;99.90
37646;DHT22;23489;49.600;6.138;2023-07-29T00:20:24;19.00;99.90
37646;DHT22;23489;49.600;6.138;2023-07-29T00:22:49;19.00;99.90
37646;DHT22;23489;49.600;6.138;2023-07-29T00:25:17;19.00;99.90
37646;DHT22;23489;49.600;6.138;2023-07-29T00:27:43;19.00;99.90
37646;DHT22;23489;49.600;6.138;2023-07-29T00:30:09;19.10;99.90
37646;DHT22;23489;49.600;6.138;2023-07-29T00:32:35;19.10;99.90
37646;DHT22;23489;49.600;6.138;2023-07-29T00:35:02;19.10;99.90
37646;DHT22;23489;49.600;6.138;2023-07-29T00:37:30;19.10;99.90
37646;DHT22;23489;49.600;6.138;2023-07-29T00:39:56;19.20;99.90
37646;DHT22;23489;49.600;6.138;2023-07-29T00:42:21;19.10;99.90
37646;DHT22;23489;49.600;6.138;2023-07-29T00:44:47;19.20;99.90
37646;DHT22;23489;49.600;6.138;2023-07-29T00:47:15;19.20;99.90
37646;DHT22;23489;49.600;6.138;2023-07-29T00:49:44;19.20;99.90
37646;DHT22;23489;49.600;6.138;2023-07-29T00:52:11;19.10;99.90
37646;DHT22;23489;49.600;6.138;2023-07-29T00:54:41;19.10;99.90
37646;DHT22;23489;49.600;6.138;2023-07-29T00:57:08;19.00;99.90
37646;DHT22;23489;49.600;6.138;2023-07-29T00:59:35;19.00;99.90
37646;DHT22;23489;49.600;6.138;2023-07-29T01:02:02;18.90;99.90
37646;DHT22;23489;49.600;6.138;2023-07-29T01:04:30;18.90;99.90
37646;DHT22;23489;49.600;6.138;2023-07-29T01:06:58;18.90;99.90
37646;DHT22;23489;49.600;6.138;2023-07-29T01:09:44;18.90;99.90
37646;DHT22;23489;49.600;6.138;2023-07-29T01:12:33;18.90;99.90
37646;DHT22;23489;49.600;6.138;2023-07-29T01:17:48;18.80;99.90
37646;DHT22;23489;49.600;6.138;2023-07-29T01:20:16;18.80;99.90
37646;DHT22;23489;49.600;6.138;2023-07-29T01:22:42;18.80;99.90
37646;DHT22;23489;49.600;6.138;2023-07-29T01:25:10;18.80;99.90
37646;DHT22;23489;49.600;6.138;2023-07-29T01:27:35;18.90;99.90
37646;DHT22;23489;49.600;6.138;2023-07-29T01:30:02;18.80;99.90
37646;DHT22;23489;49.600;6.138;2023-07-29T01:32:51;18.90;99.90
37646;DHT22;23489;49.600;6.138;2023-07-29T01:35:23;18.90;99.90
37646;DHT22;23489;49.600;6.138;2023-07-29T01:37:56;18.80;99.90
37646;DHT22;23489;49.600;6.138;2023-07-29T01:40:27;18.90;99.90
37646;DHT22;23489;49.600;6.138;2023-07-29T01:42:53;18.90;99.90
37646;DHT22;23489;49.600;6.138;2023-07-29T01:45:18;18.90;99.90
37646;DHT22;23489;49.600;6.138;2023-07-29T01:47:44;18.90;99.90
37646;DHT22;23489;49.600;6.138;2023-07-29T01:50:10;18.90;99.90
37646;DHT22;23489;49.600;6.138;2023-07-29T01:52:36;19.00;99.90
37646;DHT22;23489;49.600;6.138;2023-07-29T01:55:02;19.00;99.90
37646;DHT22;23489;49.600;6.138;2023-07-29T01:57:28;19.00;99.90
37646;DHT22;23489;49.600;6.138;2023-07-29T01:59:54;19.00;99.90
37646;DHT22;23489;49.600;6.138;2023-07-29T02:02:19;19.00;99.90
37646;DHT22;23489;49.600;6.138;2023-07-29T02:04:45;19.10;99.90
37646;DHT22;23489;49.600;6.138;2023-07-29T02:07:17;19.10;99.90
37646;DHT22;23489;49.600;6.138;2023-07-29T02:09:42;19.10;99.90
37646;DHT22;23489;49.600;6.138;2023-07-29T02:12:08;19.10;99.90
37646;DHT22;23489;49.600;6.138;2023-07-29T02:14:36;19.10;99.90
37646;DHT22;23489;49.600;6.138;2023-07-29T02:17:02;19.10;99.90
37646;DHT22;23489;49.600;6.138;2023-07-29T02:19:27;19.10;99.90
37646;DHT22;23489;49.600;6.138;2023-07-29T02:21:53;19.10;99.90
37646;DHT22;23489;49.600;6.138;2023-07-29T02:24:19;19.10;99.90
37646;DHT22;23489;49.600;6.138;2023-07-29T02:26:44;19.10;99.90
37646;DHT22;23489;49.600;6.138;2023-07-29T02:29:10;19.10;99.90
37646;DHT22;23489;49.600;6.138;2023-07-29T02:31:36;19.10;99.90
37646;DHT22;23489;49.600;6.138;2023-07-29T02:34:03;19.10;99.90
37646;DHT22;23489;49.600;6.138;2023-07-29T02:36:29;19.20;99.90
37646;DHT22;23489;49.600;6.138;2023-07-29T02:38:55;19.10;99.90
37646;DHT22;23489;49.600;6.138;2023-07-29T02:41:21;19.20;99.90
37646;DHT22;23489;49.600;6.138;2023-07-29T02:43:50;19.20;99.90
37646;DHT22;23489;49.600;6.138;2023-07-29T02:46:16;19.20;99.90
37646;DHT22;23489;49.600;6.138;2023-07-29T02:48:43;19.20;99.90
37646;DHT22;23489;49.600;6.138;2023-07-29T02:51:09;19.20;99.90
37646;DHT22;23489;49.600;6.138;2023-07-29T02:53:35;19.20;99.90
37646;DHT22;23489;49.600;6.138;2023-07-29T02:56:03;19.20;99.90
37646;DHT22;23489;49.600;6.138;2023-07-29T02:58:29;19.10;99.90
37646;DHT22;23489;49.600;6.138;2023-07-29T03:01:04;19.20;99.90
37646;DHT22;23489;49.600;6.138;2023-07-29T03:03:30;19.20;99.90
37646;DHT22;23489;49.600;6.138;2023-07-29T03:06:01;19.20;99.90
37646;DHT22;23489;49.600;6.138;2023-07-29T03:08:27;19.20;99.90
37646;DHT22;23489;49.600;6.138;2023-07-29T03:10:53;19.00;99.90
37646;DHT22;23489;49.600;6.138;2023-07-29T03:13:19;18.60;99.90
37646;DHT22;23489;49.600;6.138;2023-07-29T03:15:45;18.30;99.90
37646;DHT22;23489;49.600;6.138;2023-07-29T03:18:10;18.20;99.90
37646;DHT22;23489;49.600;6.138;2023-07-29T03:20:36;18.00;99.90
37646;DHT22;23489;49.600;6.138;2023-07-29T03:23:01;18.00;99.90
37646;DHT22;23489;49.600;6.138;2023-07-29T03:25:28;17.90;99.90
37646;DHT22;23489;49.600;6.138;2023-07-29T03:27:54;17.80;99.90
37646;DHT22;23489;49.600;6.138;2023-07-29T03:30:21;17.90;99.90
37646;DHT22;23489;49.600;6.138;2023-07-29T03:32:48;17.80;99.90
37646;DHT22;23489;49.600;6.138;2023-07-29T03:35:14;17.70;99.90
37646;DHT22;23489;49.600;6.138;2023-07-29T03:37:40;17.80;99.90
37646;DHT22;23489;49.600;6.138;2023-07-29T03:40:07;17.70;99.90
37646;DHT22;23489;49.600;6.138;2023-07-29T03:42:34;17.70;99.90
37646;DHT22;23489;49.600;6.138;2023-07-29T03:45:00;17.60;99.90
37646;DHT22;23489;49.600;6.138;2023-07-29T03:47:26;17.60;99.90
37646;DHT22;23489;49.600;6.138;2023-07-29T03:49:53;17.50;99.90
37646;DHT22;23489;49.600;6.138;2023-07-29T03:52:21;17.50;99.90
37646;DHT22;23489;49.600;6.138;2023-07-29T03:54:46;17.60;99.90
37646;DHT22;23489;49.600;6.138;2023-07-29T03:57:12;17.60;99.90
37646;DHT22;23489;49.600;6.138;2023-07-29T03:59:37;17.60;99.90
37646;DHT22;23489;49.600;6.138;2023-07-29T04:02:03;17.60;99.90
37646;DHT22;23489;49.600;6.138;2023-07-29T04:04:29;17.60;99.90
37646;DHT22;23489;49.600;6.138;2023-07-29T04:06:55;17.60;99.90
37646;DHT22;23489;49.600;6.138;2023-07-29T04:09:21;17.60;99.90
37646;DHT22;23489;49.600;6.138;2023-07-29T04:11:46;17.60;99.90
37646;DHT22;23489;49.600;6.138;2023-07-29T04:14:12;17.70;99.90
37646;DHT22;23489;49.600;6.138;2023-07-29T04:16:38;17.70;99.90
37646;DHT22;23489;49.600;6.138;2023-07-29T04:19:03;17.70;99.90
37646;DHT22;23489;49.600;6.138;2023-07-29T04:21:29;17.70;99.90
37646;DHT22;23489;49.600;6.138;2023-07-29T04:23:55;17.70;99.90
37646;DHT22;23489;49.600;6.138;2023-07-29T04:26:21;17.70;99.90
37646;DHT22;23489;49.600;6.138;2023-07-29T04:28:46;17.70;99.90
37646;DHT22;23489;49.600;6.138;2023-07-29T04:31:12;17.60;99.90
37646;DHT22;23489;49.600;6.138;2023-07-29T04:33:37;17.70;99.90
37646;DHT22;23489;49.600;6.138;2023-07-29T04:36:03;17.60;99.90
37646;DHT22;23489;49.600;6.138;2023-07-29T04:38:33;17.60;99.90
37646;DHT22;23489;49.600;6.138;2023-07-29T04:40:59;17.50;99.90
37646;DHT22;23489;49.600;6.138;2023-07-29T04:43:30;17.40;99.90
37646;DHT22;23489;49.600;6.138;2023-07-29T04:45:56;17.30;99.90
37646;DHT22;23489;49.600;6.138;2023-07-29T04:48:21;17.30;99.90
37646;DHT22;23489;49.600;6.138;2023-07-29T04:50:47;17.30;99.90
37646;DHT22;23489;49.600;6.138;2023-07-29T04:53:13;17.30;99.90
37646;DHT22;23489;49.600;6.138;2023-07-29T04:55:41;17.40;99.90
37646;DHT22;23489;49.600;6.138;2023-07-29T04:58:07;17.40;99.90
37646;DHT22;23489;49.600;6.138;2023-07-29T05:00:32;17.30;99.90
37646;DHT22;23489;49.600;6.138;2023-07-29T05:02:59;17.20;99.90
37646;DHT22;23489;49.600;6.138;2023-07-29T05:05:24;17.20;99.90
37646;DHT22;23489;49.600;6.138;2023-07-29T05:07:50;17.20;99.90
37646;DHT22;23489;49.600;6.138;2023-07-29T05:10:16;17.10;99.90
37646;DHT22;23489;49.600;6.138;2023-07-29T05:12:41;17.10;99.90
37646;DHT22;23489;49.600;6.138;2023-07-29T05:15:07;17.00;99.90
37646;DHT22;23489;49.600;6.138;2023-07-29T05:17:33;17.00;99.90
37646;DHT22;23489;49.600;6.138;2023-07-29T05:19:59;17.10;99.90
37646;DHT22;23489;49.600;6.138;2023-07-29T05:22:24;17.20;99.90
37646;DHT22;23489;49.600;6.138;2023-07-29T05:24:50;17.30;99.90
37646;DHT22;23489;49.600;6.138;2023-07-29T05:27:16;17.40;99.90
37646;DHT22;23489;49.600;6.138;2023-07-29T05:29:42;17.50;99.90
37646;DHT22;23489;49.600;6.138;2023-07-29T05:32:07;17.60;99.90
37646;DHT22;23489;49.600;6.138;2023-07-29T05:34:33;17.60;99.90
37646;DHT22;23489;49.600;6.138;2023-07-29T05:36:58;17.50;99.90
37646;DHT22;23489;49.600;6.138;2023-07-29T05:39:24;17.50;99.90
37646;DHT22;23489;49.600;6.138;2023-07-29T05:41:50;17.50;99.90
37646;DHT22;23489;49.600;6.138;2023-07-29T05:44:15;17.50;99.90
37646;DHT22;23489;49.600;6.138;2023-07-29T05:46:41;17.50;99.90
37646;DHT22;23489;49.600;6.138;2023-07-29T05:49:06;17.60;99.90
37646;DHT22;23489;49.600;6.138;2023-07-29T05:51:32;17.60;99.90
37646;DHT22;23489;49.600;6.138;2023-07-29T05:53:58;17.60;99.90
37646;DHT22;23489;49.600;6.138;2023-07-29T05:56:23;17.60;99.90
37646;DHT22;23489;49.600;6.138;2023-07-29T05:58:51;17.70;99.90
37646;DHT22;23489;49.600;6.138;2023-07-29T06:01:17;17.70;99.90
37646;DHT22;23489;49.600;6.138;2023-07-29T06:03:42;17.70;99.90
37646;DHT22;23489;49.600;6.138;2023-07-29T06:06:08;17.80;99.90
37646;DHT22;23489;49.600;6.138;2023-07-29T06:08:34;17.90;99.90
37646;DHT22;23489;49.600;6.138;2023-07-29T06:11:00;17.90;99.90
37646;DHT22;23489;49.600;6.138;2023-07-29T06:13:25;17.80;99.90
37646;DHT22;23489;49.600;6.138;2023-07-29T06:15:51;17.80;99.90
37646;DHT22;23489;49.600;6.138;2023-07-29T06:18:17;17.80;99.90
37646;DHT22;23489;49.600;6.138;2023-07-29T06:20:42;17.80;99.90
37646;DHT22;23489;49.600;6.138;2023-07-29T06:23:08;17.90;99.90
37646;DHT22;23489;49.600;6.138;2023-07-29T06:25:34;17.90;99.90
37646;DHT22;23489;49.600;6.138;2023-07-29T06:27:59;18.00;99.90
37646;DHT22;23489;49.600;6.138;2023-07-29T06:30:25;18.10;99.90
37646;DHT22;23489;49.600;6.138;2023-07-29T06:32:51;18.10;99.90
37646;DHT22;23489;49.600;6.138;2023-07-29T06:35:16;18.10;99.90
37646;DHT22;23489;49.600;6.138;2023-07-29T06:37:42;18.20;99.90
37646;DHT22;23489;49.600;6.138;2023-07-29T06:40:08;18.20;99.90
37646;DHT22;23489;49.600;6.138;2023-07-29T06:42:34;18.20;99.90
37646;DHT22;23489;49.600;6.138;2023-07-29T06:44:59;18.20;99.90
37646;DHT22;23489;49.600;6.138;2023-07-29T06:47:25;18.40;99.90
37646;DHT22;23489;49.600;6.138;2023-07-29T06:49:50;18.50;99.90
37646;DHT22;23489;49.600;6.138;2023-07-29T06:52:16;18.80;99.90
37646;DHT22;23489;49.600;6.138;2023-07-29T06:54:41;19.50;99.90
37646;DHT22;23489;49.600;6.138;2023-07-29T06:57:07;19.80;99.90
37646;DHT22;23489;49.600;6.138;2023-07-29T06:59:33;20.00;99.90
37646;DHT22;23489;49.600;6.138;2023-07-29T07:01:59;20.10;99.90
37646;DHT22;23489;49.600;6.138;2023-07-29T07:04:25;20.20;99.90
37646;DHT22;23489;49.600;6.138;2023-07-29T07:06:51;20.00;99.90
37646;DHT22;23489;49.600;6.138;2023-07-29T07:09:16;19.80;99.90
37646;DHT22;23489;49.600;6.138;2023-07-29T07:11:42;19.70;99.90
37646;DHT22;23489;49.600;6.138;2023-07-29T07:14:07;19.50;99.90
37646;DHT22;23489;49.600;6.138;2023-07-29T07:16:33;19.90;99.90
37646;DHT22;23489;49.600;6.138;2023-07-29T07:19:00;20.50;99.90
37646;DHT22;23489;49.600;6.138;2023-07-29T07:21:26;21.60;99.90
37646;DHT22;23489;49.600;6.138;2023-07-29T07:23:52;21.90;99.90
37646;DHT22;23489;49.600;6.138;2023-07-29T07:26:17;22.40;99.90
37646;DHT22;23489;49.600;6.138;2023-07-29T07:28:43;23.20;99.90
37646;DHT22;23489;49.600;6.138;2023-07-29T07:31:08;24.20;99.90
37646;DHT22;23489;49.600;6.138;2023-07-29T07:33:34;25.20;99.90
37646;DHT22;23489;49.600;6.138;2023-07-29T07:36:00;26.40;99.90
37646;DHT22;23489;49.600;6.138;2023-07-29T07:38:25;26.20;99.90
37646;DHT22;23489;49.600;6.138;2023-07-29T07:40:57;25.40;99.90
37646;DHT22;23489;49.600;6.138;2023-07-29T07:43:24;24.80;99.90
37646;DHT22;23489;49.600;6.138;2023-07-29T07:45:49;24.80;99.90
37646;DHT22;23489;49.600;6.138;2023-07-29T07:48:15;24.40;99.90
37646;DHT22;23489;49.600;6.138;2023-07-29T07:50:42;23.80;99.90
37646;DHT22;23489;49.600;6.138;2023-07-29T07:53:08;23.10;99.90
37646;DHT22;23489;49.600;6.138;2023-07-29T07:55:34;23.10;99.90
37646;DHT22;23489;49.600;6.138;2023-07-29T07:57:59;24.10;99.90
37646;DHT22;23489;49.600;6.138;2023-07-29T08:00:25;25.90;99.90
37646;DHT22;23489;49.600;6.138;2023-07-29T08:02:50;27.50;99.90
37646;DHT22;23489;49.600;6.138;2023-07-29T08:05:16;28.40;99.90
37646;DHT22;23489;49.600;6.138;2023-07-29T08:07:42;29.30;99.90
37646;DHT22;23489;49.600;6.138;2023-07-29T08:10:07;30.00;99.90
37646;DHT22;23489;49.600;6.138;2023-07-29T08:12:33;30.60;99.90
37646;DHT22;23489;49.600;6.138;2023-07-29T08:14:59;31.80;99.90
37646;DHT22;23489;49.600;6.138;2023-07-29T08:17:24;32.90;98.90
37646;DHT22;23489;49.600;6.138;2023-07-29T08:19:50;33.90;97.30
37646;DHT22;23489;49.600;6.138;2023-07-29T08:22:16;34.60;94.90
37646;DHT22;23489;49.600;6.138;2023-07-29T08:24:43;35.30;92.90
37646;DHT22;23489;49.600;6.138;2023-07-29T08:27:08;34.20;92.40
37646;DHT22;23489;49.600;6.138;2023-07-29T08:29:34;33.80;92.50
37646;DHT22;23489;49.600;6.138;2023-07-29T08:31:59;34.00;91.40
37646;DHT22;23489;49.600;6.138;2023-07-29T08:34:25;34.10;90.80
37646;DHT22;23489;49.600;6.138;2023-07-29T08:36:50;30.80;92.30
37646;DHT22;23489;49.600;6.138;2023-07-29T08:39:16;30.60;93.20
37646;DHT22;23489;49.600;6.138;2023-07-29T08:42:07;30.90;93.20
37646;DHT22;23489;49.600;6.138;2023-07-29T08:44:36;32.20;92.40
37646;DHT22;23489;49.600;6.138;2023-07-29T08:47:05;33.70;90.80
37646;DHT22;23489;49.600;6.138;2023-07-29T08:49:31;33.70;90.00
37646;DHT22;23489;49.600;6.138;2023-07-29T08:51:57;33.70;88.30
37646;DHT22;23489;49.600;6.138;2023-07-29T08:54:23;33.90;88.30
37646;DHT22;23489;49.600;6.138;2023-07-29T08:56:49;34.30;86.90
37646;DHT22;23489;49.600;6.138;2023-07-29T08:59:15;32.90;86.30
37646;DHT22;23489;49.600;6.138;2023-07-29T09:01:42;30.20;90.80
37646;DHT22;23489;49.600;6.138;2023-07-29T09:04:08;29.50;92.50
37646;DHT22;23489;49.600;6.138;2023-07-29T09:06:35;29.60;93.40
37646;DHT22;23489;49.600;6.138;2023-07-29T09:09:03;29.60;93.20
37646;DHT22;23489;49.600;6.138;2023-07-29T09:11:30;28.70;94.40
37646;DHT22;23489;49.600;6.138;2023-07-29T09:13:56;29.30;93.50
37646;DHT22;23489;49.600;6.138;2023-07-29T09:16:22;29.00;93.80
37646;DHT22;23489;49.600;6.138;2023-07-29T09:18:49;29.40;93.30
37646;DHT22;23489;49.600;6.138;2023-07-29T09:21:23;29.50;93.00
37646;DHT22;23489;49.600;6.138;2023-07-29T09:23:50;30.30;92.10
37646;DHT22;23489;49.600;6.138;2023-07-29T09:26:22;30.70;91.90
37646;DHT22;23489;49.600;6.138;2023-07-29T09:28:52;31.10;91.90
37646;DHT22;23489;49.600;6.138;2023-07-29T09:31:28;32.60;90.80
37646;DHT22;23489;49.600;6.138;2023-07-29T09:34:04;34.00;88.50
37646;DHT22;23489;49.600;6.138;2023-07-29T09:36:32;34.20;85.70
37646;DHT22;23489;49.600;6.138;2023-07-29T09:38:58;33.00;87.90
37646;DHT22;23489;49.600;6.138;2023-07-29T09:41:27;32.50;90.20
37646;DHT22;23489;49.600;6.138;2023-07-29T09:44:02;33.00;87.90
37646;DHT22;23489;49.600;6.138;2023-07-29T09:46:35;33.30;86.90
37646;DHT22;23489;49.600;6.138;2023-07-29T09:49:06;33.10;85.60
37646;DHT22;23489;49.600;6.138;2023-07-29T09:51:32;31.00;90.20
37646;DHT22;23489;49.600;6.138;2023-07-29T09:54:02;29.50;91.90
37646;DHT22;23489;49.600;6.138;2023-07-29T09:56:28;27.60;95.50
37646;DHT22;23489;49.600;6.138;2023-07-29T09:58:56;27.40;96.40
37646;DHT22;23489;49.600;6.138;2023-07-29T10:01:23;27.80;96.20
37646;DHT22;23489;49.600;6.138;2023-07-29T10:03:49;27.70;96.50
37646;DHT22;23489;49.600;6.138;2023-07-29T10:06:15;27.60;96.30
37646;DHT22;23489;49.600;6.138;2023-07-29T10:08:42;28.50;96.00
37646;DHT22;23489;49.600;6.138;2023-07-29T10:11:09;27.70;96.70
37646;DHT22;23489;49.600;6.138;2023-07-29T10:13:36;28.60;95.40
37646;DHT22;23489;49.600;6.138;2023-07-29T10:16:03;29.60;93.90
37646;DHT22;23489;49.600;6.138;2023-07-29T10:18:33;29.10;93.80
37646;DHT22;23489;49.600;6.138;2023-07-29T10:21:00;29.50;94.10
37646;DHT22;23489;49.600;6.138;2023-07-29T10:23:28;29.30;94.30
37646;DHT22;23489;49.600;6.138;2023-07-29T10:26:04;29.40;93.70
37646;DHT22;23489;49.600;6.138;2023-07-29T10:28:31;28.10;94.90
37646;DHT22;23489;49.600;6.138;2023-07-29T10:30:58;27.00;96.70
37646;DHT22;23489;49.600;6.138;2023-07-29T10:33:24;27.00;96.80
37646;DHT22;23489;49.600;6.138;2023-07-29T10:35:52;27.40;96.00
37646;DHT22;23489;49.600;6.138;2023-07-29T10:38:20;27.70;95.80
37646;DHT22;23489;49.600;6.138;2023-07-29T10:40:49;28.50;94.40
37646;DHT22;23489;49.600;6.138;2023-07-29T10:43:32;29.00;93.60
37646;DHT22;23489;49.600;6.138;2023-07-29T10:46:15;28.80;93.30
37646;DHT22;23489;49.600;6.138;2023-07-29T10:48:44;28.50;93.50
37646;DHT22;23489;49.600;6.138;2023-07-29T10:51:29;28.80;93.50
37646;DHT22;23489;49.600;6.138;2023-07-29T10:54:17;28.60;93.20
37646;DHT22;23489;49.600;6.138;2023-07-29T10:56:46;28.70;93.00
37646;DHT22;23489;49.600;6.138;2023-07-29T11:01:42;28.30;93.20
37646;DHT22;23489;49.600;6.138;2023-07-29T11:07:18;27.50;94.50
37646;DHT22;23489;49.600;6.138;2023-07-29T11:12:36;26.70;96.20
37646;DHT22;23489;49.600;6.138;2023-07-29T11:20:05;28.30;94.80
37646;DHT22;23489;49.600;6.138;2023-07-29T11:22:33;28.40;94.30
37646;DHT22;23489;49.600;6.138;2023-07-29T11:24:59;28.50;94.20
37646;DHT22;23489;49.600;6.138;2023-07-29T11:27:24;28.10;94.40
37646;DHT22;23489;49.600;6.138;2023-07-29T11:29:50;26.90;96.10
37646;DHT22;23489;49.600;6.138;2023-07-29T11:32:16;26.60;96.60
37646;DHT22;23489;49.600;6.138;2023-07-29T11:34:42;26.50;96.50
37646;DHT22;23489;49.600;6.138;2023-07-29T11:37:11;26.30;96.80
37646;DHT22;23489;49.600;6.138;2023-07-29T11:39:40;25.70;97.40
37646;DHT22;23489;49.600;6.138;2023-07-29T11:42:07;24.90;98.80
37646;DHT22;23489;49.600;6.138;2023-07-29T11:44:36;24.80;99.40
37646;DHT22;23489;49.600;6.138;2023-07-29T11:47:02;24.90;99.30
37646;DHT22;23489;49.600;6.138;2023-07-29T11:49:27;24.90;99.00
37646;DHT22;23489;49.600;6.138;2023-07-29T11:51:53;24.70;98.90
37646;DHT22;23489;49.600;6.138;2023-07-29T11:54:19;24.90;98.40
37646;DHT22;23489;49.600;6.138;2023-07-29T11:56:47;25.00;98.30
37646;DHT22;23489;49.600;6.138;2023-07-29T11:59:13;25.30;98.30
37646;DHT22;23489;49.600;6.138;2023-07-29T12:01:40;25.40;98.00
37646;DHT22;23489;49.600;6.138;2023-07-29T12:04:05;25.90;97.40
37646;DHT22;23489;49.600;6.138;2023-07-29T12:06:31;25.80;97.80
37646;DHT22;23489;49.600;6.138;2023-07-29T12:08:57;25.30;98.10
37646;DHT22;23489;49.600;6.138;2023-07-29T12:11:23;25.50;98.20
37646;DHT22;23489;49.600;6.138;2023-07-29T12:13:49;25.80;97.50
37646;DHT22;23489;49.600;6.138;2023-07-29T12:16:17;25.80;97.60
37646;DHT22;23489;49.600;6.138;2023-07-29T12:18:43;25.10;98.20
37646;DHT22;23489;49.600;6.138;2023-07-29T12:21:09;24.80;99.40
37646;DHT22;23489;49.600;6.138;2023-07-29T12:23:36;25.30;98.90
37646;DHT22;23489;49.600;6.138;2023-07-29T12:26:01;25.50;98.30
37646;DHT22;23489;49.600;6.138;2023-07-29T12:28:28;25.50;98.30
37646;DHT22;23489;49.600;6.138;2023-07-29T12:30:54;25.60;98.10
37646;DHT22;23489;49.600;6.138;2023-07-29T12:33:30;25.80;97.60
37646;DHT22;23489;49.600;6.138;2023-07-29T12:35:56;25.80;97.50
37646;DHT22;23489;49.600;6.138;2023-07-29T12:38:22;25.30;98.20
37646;DHT22;23489;49.600;6.138;2023-07-29T12:40:47;25.70;98.20
37646;DHT22;23489;49.600;6.138;2023-07-29T12:43:13;25.70;97.50
37646;DHT22;23489;49.600;6.138;2023-07-29T12:45:39;26.00;96.70
37646;DHT22;23489;49.600;6.138;2023-07-29T12:48:08;26.20;96.00
37646;DHT22;23489;49.600;6.138;2023-07-29T12:50:34;26.00;96.20
37646;DHT22;23489;49.600;6.138;2023-07-29T12:52:59;26.20;96.10
37646;DHT22;23489;49.600;6.138;2023-07-29T12:55:25;26.10;96.20
37646;DHT22;23489;49.600;6.138;2023-07-29T12:57:51;26.00;96.40
37646;DHT22;23489;49.600;6.138;2023-07-29T13:00:17;25.60;97.10
37646;DHT22;23489;49.600;6.138;2023-07-29T13:02:42;25.50;97.10
37646;DHT22;23489;49.600;6.138;2023-07-29T13:05:11;25.40;97.30
37646;DHT22;23489;49.600;6.138;2023-07-29T13:07:41;25.20;97.60
37646;DHT22;23489;49.600;6.138;2023-07-29T13:10:08;25.20;98.00
37646;DHT22;23489;49.600;6.138;2023-07-29T13:12:34;25.30;97.80
37646;DHT22;23489;49.600;6.138;2023-07-29T13:15:00;25.30;97.60
37646;DHT22;23489;49.600;6.138;2023-07-29T13:17:25;25.40;98.00
37646;DHT22;23489;49.600;6.138;2023-07-29T13:19:51;25.50;98.20
37646;DHT22;23489;49.600;6.138;2023-07-29T13:22:17;25.50;97.30
37646;DHT22;23489;49.600;6.138;2023-07-29T13:24:42;25.20;98.10
37646;DHT22;23489;49.600;6.138;2023-07-29T13:27:10;25.00;98.30
37646;DHT22;23489;49.600;6.138;2023-07-29T13:29:36;25.00;98.80
37646;DHT22;23489;49.600;6.138;2023-07-29T13:32:01;25.10;98.80
37646;DHT22;23489;49.600;6.138;2023-07-29T13:34:27;25.40;98.20
37646;DHT22;23489;49.600;6.138;2023-07-29T13:36:53;25.50;98.00
37646;DHT22;23489;49.600;6.138;2023-07-29T13:39:19;25.50;97.60
37646;DHT22;23489;49.600;6.138;2023-07-29T13:41:44;25.70;97.50
37646;DHT22;23489;49.600;6.138;2023-07-29T13:44:10;25.40;98.10
37646;DHT22;23489;49.600;6.138;2023-07-29T13:46:35;25.40;97.60
37646;DHT22;23489;49.600;6.138;2023-07-29T13:49:01;25.60;97.60
37646;DHT22;23489;49.600;6.138;2023-07-29T13:51:28;25.70;97.60
37646;DHT22;23489;49.600;6.138;2023-07-29T13:53:54;25.70;97.70
37646;DHT22;23489;49.600;6.138;2023-07-29T13:56:19;25.70;97.80
37646;DHT22;23489;49.600;6.138;2023-07-29T13:58:45;25.60;98.10
37646;DHT22;23489;49.600;6.138;2023-07-29T14:01:10;25.80;98.50
37646;DHT22;23489;49.600;6.138;2023-07-29T14:03:36;25.80;98.30
37646;DHT22;23489;49.600;6.138;2023-07-29T14:06:01;25.60;98.80
37646;DHT22;23489;49.600;6.138;2023-07-29T14:08:27;25.60;98.80
37646;DHT22;23489;49.600;6.138;2023-07-29T14:10:52;25.30;99.00
37646;DHT22;23489;49.600;6.138;2023-07-29T14:13:18;25.40;99.10
37646;DHT22;23489;49.600;6.138;2023-07-29T14:15:43;25.40;99.20
37646;DHT22;23489;49.600;6.138;2023-07-29T14:18:09;25.60;99.20
37646;DHT22;23489;49.600;6.138;2023-07-29T14:20:35;25.70;98.90
37646;DHT22;23489;49.600;6.138;2023-07-29T14:23:01;25.60;99.00
37646;DHT22;23489;49.600;6.138;2023-07-29T14:25:27;25.50;99.00
37646;DHT22;23489;49.600;6.138;2023-07-29T14:27:52;25.40;99.20
37646;DHT22;23489;49.600;6.138;2023-07-29T14:30:18;25.50;99.20
37646;DHT22;23489;49.600;6.138;2023-07-29T14:32:43;25.40;99.60
37646;DHT22;23489;49.600;6.138;2023-07-29T14:35:09;25.30;99.80
37646;DHT22;23489;49.600;6.138;2023-07-29T14:37:35;25.50;99.70
37646;DHT22;23489;49.600;6.138;2023-07-29T14:40:01;25.40;99.80
37646;DHT22;23489;49.600;6.138;2023-07-29T14:42:27;25.30;99.50
37646;DHT22;23489;49.600;6.138;2023-07-29T14:44:53;25.50;99.50
37646;DHT22;23489;49.600;6.138;2023-07-29T14:47:19;25.40;99.40
37646;DHT22;23489;49.600;6.138;2023-07-29T14:49:45;25.50;99.50
37646;DHT22;23489;49.600;6.138;2023-07-29T14:52:11;25.50;99.50
37646;DHT22;23489;49.600;6.138;2023-07-29T14:54:37;25.30;99.30
37646;DHT22;23489;49.600;6.138;2023-07-29T14:57:04;25.30;99.60
37646;DHT22;23489;49.600;6.138;2023-07-29T14:59:30;25.30;99.90
37646;DHT22;23489;49.600;6.138;2023-07-29T15:01:56;25.40;99.90
37646;DHT22;23489;49.600;6.138;2023-07-29T15:04:21;25.60;99.50
37646;DHT22;23489;49.600;6.138;2023-07-29T15:06:47;25.70;99.40
37646;DHT22;23489;49.600;6.138;2023-07-29T15:09:12;25.80;99.10
37646;DHT22;23489;49.600;6.138;2023-07-29T15:11:38;25.80;98.80
37646;DHT22;23489;49.600;6.138;2023-07-29T15:14:03;25.50;99.50
37646;DHT22;23489;49.600;6.138;2023-07-29T15:16:29;25.50;99.60
37646;DHT22;23489;49.600;6.138;2023-07-29T15:18:55;25.40;99.90
37646;DHT22;23489;49.600;6.138;2023-07-29T15:21:21;25.40;99.50
37646;DHT22;23489;49.600;6.138;2023-07-29T15:23:47;25.50;99.70
37646;DHT22;23489;49.600;6.138;2023-07-29T15:26:12;25.70;99.70
37646;DHT22;23489;49.600;6.138;2023-07-29T15:28:38;25.60;99.70
37646;DHT22;23489;49.600;6.138;2023-07-29T15:31:04;25.50;99.90
37646;DHT22;23489;49.600;6.138;2023-07-29T15:33:29;25.20;99.90
37646;DHT22;23489;49.600;6.138;2023-07-29T15:35:55;25.00;99.90
37646;DHT22;23489;49.600;6.138;2023-07-29T15:38:20;25.10;99.90
37646;DHT22;23489;49.600;6.138;2023-07-29T15:40:46;25.20;99.90
37646;DHT22;23489;49.600;6.138;2023-07-29T15:43:14;25.20;99.90